Time;durP1;ratioP1;P1;durP2;ratioP2;P2;SDS_P1;SDS_P2;PMS_P1;PMS_P2;Temp;Humidity;BMP_temperature;BMP_pressure;BME280_temperature;BME280_humidity;BME280_pressure;Samples;Min_cycle;Max_cycle;Signal;HPM_P1;HPM_P2
2023/10/12 00:01:58;;;;;;;;;;;21.70;59.30;;;;;;5044870;28;19968;-70
2023/10/12 00:04:25;;;;;;;;;;;21.70;59.20;;;;;;5048807;28;20366;-68
2023/10/12 00:06:52;;;;;;;;;;;21.70;58.90;;;;;;5047081;28;19928;-66
2023/10/12 00:09:20;;;;;;;;;;;21.70;58.30;;;;;;5047627;28;20012;-67
2023/10/12 00:11:56;;;;;;;;;;;21.60;58.20;;;;;;5046139;28;20445;-68
2023/10/12 00:14:23;;;;;;;;;;;21.50;58.00;;;;;;5046187;28;19921;-68
2023/10/12 00:16:51;;;;;;;;;;;21.50;58.00;;;;;;5050573;28;19943;-67
2023/10/12 00:19:19;;;;;;;;;;;21.50;58.00;;;;;;5047546;28;19982;-65
2023/10/12 00:21:46;;;;;;;;;;;21.40;58.70;;;;;;5049288;28;19970;-66
2023/10/12 00:24:13;;;;;;;;;;;21.40;58.10;;;;;;5052071;28;19925;-68
2023/10/12 00:26:42;;;;;;;;;;;21.40;58.10;;;;;;5048727;28;19921;-67
2023/10/12 00:29:10;;;;;;;;;;;21.40;58.10;;;;;;5050860;28;19921;-67
2023/10/12 00:31:39;;;;;;;;;;;21.40;58.20;;;;;;5048595;28;19927;-67
2023/10/12 00:34:08;;;;;;;;;;;21.40;58.20;;;;;;5050681;28;19920;-67
2023/10/12 00:36:37;;;;;;;;;;;21.40;58.20;;;;;;5050296;28;19921;-68
2023/10/12 00:39:09;;;;;;;;;;;21.40;58.30;;;;;;5049187;28;19929;-67
2023/10/12 00:41:36;;;;;;;;;;;21.40;58.30;;;;;;5052267;28;19974;-67
2023/10/12 00:44:08;;;;;;;;;;;21.40;58.30;;;;;;5050341;28;19921;-68
2023/10/12 00:46:58;;;;;;;;;;;21.40;58.30;;;;;;5051317;28;19928;-67
2023/10/12 00:49:27;;;;;;;;;;;21.40;58.30;;;;;;5048776;28;19990;-67
2023/10/12 00:52:07;;;;;;;;;;;21.40;58.30;;;;;;5049536;28;19921;-67
2023/10/12 00:54:41;;;;;;;;;;;21.40;58.30;;;;;;5049528;28;19921;-67
2023/10/12 00:57:09;;;;;;;;;;;21.40;58.30;;;;;;5049368;28;19924;-67
2023/10/12 00:59:36;;;;;;;;;;;21.40;58.30;;;;;;5050147;28;19920;-68
2023/10/12 01:02:08;;;;;;;;;;;21.40;58.20;;;;;;5049523;28;19979;-67
2023/10/12 01:04:34;;;;;;;;;;;21.40;58.10;;;;;;5046700;28;19975;-67
2023/10/12 01:07:01;;;;;;;;;;;21.40;58.00;;;;;;5049117;28;19968;-67
2023/10/12 01:09:38;;;;;;;;;;;21.40;57.90;;;;;;5051294;28;19921;-65
2023/10/12 01:12:12;;;;;;;;;;;21.40;57.70;;;;;;5049624;28;19921;-69
2023/10/12 01:14:42;;;;;;;;;;;21.30;57.20;;;;;;5050626;28;19920;-68
2023/10/12 01:17:16;;;;;;;;;;;21.30;57.00;;;;;;5049693;28;19925;-67
2023/10/12 01:19:46;;;;;;;;;;;21.20;56.70;;;;;;5048193;28;19947;-68
2023/10/12 01:22:14;;;;;;;;;;;21.20;56.70;;;;;;5033253;28;19935;-68
2023/10/12 01:24:47;;;;;;;;;;;21.10;56.70;;;;;;5050115;28;19920;-68
2023/10/12 01:27:14;;;;;;;;;;;21.10;56.80;;;;;;5050453;28;19939;-67
2023/10/12 01:29:41;;;;;;;;;;;21.10;56.90;;;;;;5036451;28;19948;-68
2023/10/12 01:32:27;;;;;;;;;;;21.10;57.00;;;;;;5050583;28;19990;-68
2023/10/12 01:34:55;;;;;;;;;;;21.00;57.20;;;;;;5048898;28;19967;-67
2023/10/12 01:37:24;;;;;;;;;;;21.10;57.20;;;;;;5049500;28;19924;-68
2023/10/12 01:39:56;;;;;;;;;;;21.10;57.20;;;;;;5050101;28;19992;-68
2023/10/12 01:42:25;;;;;;;;;;;21.00;57.20;;;;;;5044387;28;19924;-68
2023/10/12 01:44:53;;;;;;;;;;;21.10;57.40;;;;;;5049252;28;19921;-68
2023/10/12 01:47:19;;;;;;;;;;;21.10;57.40;;;;;;5050245;28;19921;-68
2023/10/12 01:49:48;;;;;;;;;;;21.10;57.50;;;;;;5050607;28;19927;-68
2023/10/12 01:52:16;;;;;;;;;;;21.10;57.40;;;;;;5049035;28;19960;-68
2023/10/12 01:54:47;;;;;;;;;;;21.10;57.50;;;;;;5049101;28;19974;-67
2023/10/12 01:57:14;;;;;;;;;;;21.20;57.50;;;;;;5049849;28;20035;-68
2023/10/12 01:59:41;;;;;;;;;;;21.20;57.60;;;;;;5049567;28;20004;-68
2023/10/12 02:02:13;;;;;;;;;;;21.20;57.60;;;;;;5050003;28;19921;-68
2023/10/12 02:04:41;;;;;;;;;;;21.20;57.50;;;;;;5031842;28;19952;-68
2023/10/12 02:07:10;;;;;;;;;;;21.20;57.50;;;;;;5049525;28;19928;-68
2023/10/12 02:09:37;;;;;;;;;;;21.20;57.50;;;;;;5048226;28;19932;-69
2023/10/12 02:12:11;;;;;;;;;;;21.20;57.50;;;;;;5049840;28;19921;-68
2023/10/12 02:14:39;;;;;;;;;;;21.20;57.50;;;;;;5048709;28;19921;-69
2023/10/12 02:17:06;;;;;;;;;;;21.20;57.50;;;;;;5049842;28;19921;-68
2023/10/12 02:19:38;;;;;;;;;;;21.20;57.50;;;;;;5050060;28;20020;-68
2023/10/12 02:22:05;;;;;;;;;;;21.20;57.50;;;;;;5039345;28;19932;-68
2023/10/12 02:24:35;;;;;;;;;;;21.20;57.50;;;;;;5046942;28;19937;-68
2023/10/12 02:27:03;;;;;;;;;;;21.30;57.50;;;;;;5050385;28;19925;-68
2023/10/12 02:29:35;;;;;;;;;;;21.30;57.50;;;;;;5049572;28;20004;-68
2023/10/12 02:32:16;;;;;;;;;;;21.30;57.50;;;;;;5047224;28;19925;-68
2023/10/12 02:34:43;;;;;;;;;;;21.30;57.50;;;;;;5048632;28;19921;-68
2023/10/12 02:37:19;;;;;;;;;;;21.30;57.40;;;;;;5043320;28;20312;-68
2023/10/12 02:39:46;;;;;;;;;;;21.30;57.40;;;;;;5038284;28;19921;-68
2023/10/12 02:42:17;;;;;;;;;;;21.30;57.40;;;;;;5048119;28;19925;-68
2023/10/12 02:44:57;;;;;;;;;;;21.30;57.40;;;;;;5047458;28;19959;-68
2023/10/12 02:47:24;;;;;;;;;;;21.30;57.40;;;;;;5035630;28;20010;-68
2023/10/12 02:49:51;;;;;;;;;;;21.30;57.40;;;;;;5049366;28;19929;-68
2023/10/12 02:52:20;;;;;;;;;;;21.30;57.40;;;;;;5044924;28;19932;-68
2023/10/12 02:54:51;;;;;;;;;;;21.30;57.30;;;;;;5048298;28;20027;-67
2023/10/12 02:57:22;;;;;;;;;;;21.20;57.20;;;;;;5048607;28;19928;-68
2023/10/12 02:59:57;;;;;;;;;;;21.30;57.20;;;;;;5050407;28;20363;-68
2023/10/12 03:02:32;;;;;;;;;;;21.30;57.20;;;;;;5046960;28;19988;-68
2023/10/12 03:04:59;;;;;;;;;;;21.30;57.20;;;;;;5043430;28;19956;-67
2023/10/12 03:07:27;;;;;;;;;;;21.30;57.10;;;;;;5049792;28;19952;-68
2023/10/12 03:09:56;;;;;;;;;;;21.30;57.10;;;;;;5050005;28;20003;-68
2023/10/12 03:12:23;;;;;;;;;;;21.20;57.00;;;;;;5037449;28;19982;-68
2023/10/12 03:14:52;;;;;;;;;;;21.30;57.00;;;;;;5043957;28;19929;-67
2023/10/12 03:17:19;;;;;;;;;;;21.30;57.00;;;;;;5048709;28;19939;-68
2023/10/12 03:19:55;;;;;;;;;;;21.20;56.90;;;;;;5048897;28;19975;-68
2023/10/12 03:22:26;;;;;;;;;;;21.30;57.00;;;;;;5049251;28;20366;-67
2023/10/12 03:24:53;;;;;;;;;;;21.30;56.90;;;;;;5047980;28;19921;-67
2023/10/12 03:27:23;;;;;;;;;;;21.30;57.00;;;;;;5049629;28;19970;-67
2023/10/12 03:30:06;;;;;;;;;;;21.30;56.90;;;;;;5049016;28;19933;-67
2023/10/12 03:32:33;;;;;;;;;;;21.30;56.90;;;;;;5046297;28;20020;-67
2023/10/12 03:35:00;;;;;;;;;;;21.30;57.50;;;;;;5048290;28;19933;-67
2023/10/12 03:37:47;;;;;;;;;;;21.30;56.90;;;;;;5048736;28;19920;-67
2023/10/12 03:43:08;;;;;;;;;;;21.20;56.70;;;;;;5046176;28;19924;-67
2023/10/12 03:45:39;;;;;;;;;;;21.30;56.80;;;;;;5047273;28;19944;-67
2023/10/12 03:48:23;;;;;;;;;;;21.20;56.70;;;;;;5047183;28;19921;-66
2023/10/12 03:50:58;;;;;;;;;;;21.30;56.80;;;;;;5047519;28;19960;-67
2023/10/12 03:53:30;;;;;;;;;;;21.30;56.70;;;;;;5053414;28;20024;-67
2023/10/12 03:55:59;;;;;;;;;;;21.30;56.70;;;;;;5051824;28;20465;-67
2023/10/12 03:58:27;;;;;;;;;;;21.20;56.70;;;;;;5052480;28;19927;-68
2023/10/12 04:01:12;;;;;;;;;;;21.20;56.60;;;;;;5052572;28;19920;-67
2023/10/12 04:03:40;;;;;;;;;;;21.30;56.60;;;;;;5050611;28;20283;-67
2023/10/12 04:06:14;;;;;;;;;;;21.30;56.60;;;;;;5050489;28;19925;-67
2023/10/12 04:08:46;;;;;;;;;;;21.20;56.50;;;;;;5052174;28;19927;-67
2023/10/12 04:14:20;;;;;;;;;;;21.20;56.40;;;;;;5039952;28;20235;-67
2023/10/12 04:16:57;;;;;;;;;;;21.20;56.40;;;;;;5051779;28;19931;-67
2023/10/12 04:19:32;;;;;;;;;;;21.20;56.40;;;;;;5052482;28;19921;-67
2023/10/12 04:22:24;;;;;;;;;;;21.20;56.40;;;;;;5049466;28;20281;-67
2023/10/12 04:24:54;;;;;;;;;;;21.20;56.30;;;;;;5050518;28;19920;-67
2023/10/12 04:27:44;;;;;;;;;;;21.20;56.40;;;;;;5051373;28;20358;-67
2023/10/12 04:30:22;;;;;;;;;;;21.20;56.40;;;;;;5049566;28;19927;-67
2023/10/12 04:32:57;;;;;;;;;;;21.20;56.30;;;;;;5050938;28;19986;-67
2023/10/12 04:35:52;;;;;;;;;;;21.20;56.30;;;;;;5052365;28;20016;-67
2023/10/12 04:38:45;;;;;;;;;;;21.20;56.30;;;;;;5049205;28;19921;-67
2023/10/12 04:41:37;;;;;;;;;;;21.20;56.30;;;;;;5049047;28;20012;-67
2023/10/12 04:44:25;;;;;;;;;;;21.20;56.30;;;;;;5052399;28;19928;-67
2023/10/12 04:46:51;;;;;;;;;;;21.20;56.30;;;;;;5050036;28;19944;-67
2023/10/12 04:52:15;;;;;;;;;;;21.20;56.20;;;;;;5047361;28;20004;-67
2023/10/12 04:54:59;;;;;;;;;;;21.20;56.20;;;;;;5050957;28;19927;-67
2023/10/12 04:57:27;;;;;;;;;;;21.20;56.20;;;;;;5043711;28;19921;-67
2023/10/12 05:00:07;;;;;;;;;;;21.20;56.20;;;;;;5050825;28;19932;-67
2023/10/12 05:02:43;;;;;;;;;;;21.20;56.20;;;;;;5050294;28;19960;-67
2023/10/12 05:05:54;;;;;;;;;;;21.20;56.20;;;;;;5050698;28;19920;-67
2023/10/12 05:08:03;;;;;;;;;;;21.20;56.30;;;;;;5049746;28;20497;-67
2023/10/12 05:10:46;;;;;;;;;;;21.20;56.30;;;;;;5049697;28;20020;-67
2023/10/12 05:13:18;;;;;;;;;;;21.20;56.30;;;;;;5049923;28;20278;-67
2023/10/12 05:15:50;;;;;;;;;;;21.20;56.20;;;;;;5051740;28;19928;-67
2023/10/12 05:18:17;;;;;;;;;;;21.20;56.30;;;;;;5051013;28;19975;-67
2023/10/12 05:20:45;;;;;;;;;;;21.20;56.30;;;;;;5050132;28;19921;-67
2023/10/12 05:23:12;;;;;;;;;;;21.20;56.20;;;;;;5052503;28;19921;-67
2023/10/12 05:25:48;;;;;;;;;;;21.20;56.20;;;;;;5048975;28;19963;-67
2023/10/12 05:28:15;;;;;;;;;;;21.20;56.20;;;;;;5045342;28;19967;-67
2023/10/12 05:30:47;;;;;;;;;;;21.20;56.20;;;;;;5050866;28;19932;-67
2023/10/12 05:33:29;;;;;;;;;;;21.20;56.20;;;;;;5050019;28;19959;-67
2023/10/12 05:36:08;;;;;;;;;;;21.20;56.20;;;;;;5051596;28;19925;-67
2023/10/12 05:38:36;;;;;;;;;;;21.20;56.30;;;;;;5049736;28;19920;-67
2023/10/12 05:41:04;;;;;;;;;;;21.20;56.20;;;;;;5049796;28;19931;-66
2023/10/12 05:43:33;;;;;;;;;;;21.20;56.20;;;;;;5045492;28;19975;-67
2023/10/12 05:46:03;;;;;;;;;;;21.20;56.20;;;;;;5051989;28;19932;-66
2023/10/12 05:48:29;;;;;;;;;;;21.20;56.20;;;;;;5050923;28;19927;-66
2023/10/12 05:50:56;;;;;;;;;;;21.20;56.20;;;;;;5049214;28;19927;-65
2023/10/12 05:53:25;;;;;;;;;;;21.20;56.20;;;;;;5050090;28;19920;-65
2023/10/12 05:55:52;;;;;;;;;;;21.20;56.10;;;;;;5048441;28;19999;-65
2023/10/12 05:58:19;;;;;;;;;;;21.20;56.20;;;;;;5049747;28;19931;-66
2023/10/12 06:00:46;;;;;;;;;;;21.20;56.10;;;;;;5049979;28;19979;-66
2023/10/12 06:03:16;;;;;;;;;;;21.20;56.10;;;;;;5045382;28;19960;-66
2023/10/12 06:05:43;;;;;;;;;;;21.20;56.10;;;;;;5049674;28;20447;-66
2023/10/12 06:08:10;;;;;;;;;;;21.20;56.10;;;;;;5051338;28;20247;-66
2023/10/12 06:10:41;;;;;;;;;;;21.20;56.10;;;;;;5034462;28;19921;-65
2023/10/12 06:13:09;;;;;;;;;;;21.20;56.00;;;;;;5048743;28;19921;-66
2023/10/12 06:15:40;;;;;;;;;;;21.20;56.00;;;;;;5049481;28;19920;-66
2023/10/12 06:18:07;;;;;;;;;;;21.20;56.00;;;;;;5049985;28;20408;-66
2023/10/12 06:20:40;;;;;;;;;;;21.20;56.00;;;;;;5045520;28;19920;-67
2023/10/12 06:23:09;;;;;;;;;;;21.20;56.00;;;;;;5041538;28;19920;-67
2023/10/12 06:25:37;;;;;;;;;;;21.20;55.90;;;;;;5049269;28;20011;-66
2023/10/12 06:28:14;;;;;;;;;;;21.20;56.00;;;;;;5040736;28;19936;-67
2023/10/12 06:30:41;;;;;;;;;;;21.20;55.90;;;;;;5050830;28;20377;-67
2023/10/12 06:33:12;;;;;;;;;;;21.20;56.00;;;;;;5046815;28;19956;-69
2023/10/12 06:35:58;;;;;;;;;;;21.20;55.90;;;;;;5048344;28;19924;-66
2023/10/12 06:38:36;;;;;;;;;;;21.20;56.00;;;;;;5043952;28;19920;-65
2023/10/12 06:44:12;;;;;;;;;;;21.20;56.10;;;;;;5038881;28;19925;-66
2023/10/12 06:46:45;;;;;;;;;;;21.20;56.00;;;;;;5049513;28;19929;-66
2023/10/12 06:49:16;;;;;;;;;;;21.20;56.00;;;;;;5046495;28;19921;-66
2023/10/12 06:51:43;;;;;;;;;;;21.20;56.00;;;;;;5048955;28;20252;-65
2023/10/12 06:54:19;;;;;;;;;;;21.20;56.00;;;;;;5045239;28;19932;-66
2023/10/12 06:56:50;;;;;;;;;;;21.30;56.00;;;;;;5048109;28;19920;-64
2023/10/12 06:59:35;;;;;;;;;;;21.30;55.90;;;;;;5045652;28;19940;-65
2023/10/12 07:02:09;;;;;;;;;;;21.20;55.90;;;;;;5045211;28;19921;-65
2023/10/12 07:04:38;;;;;;;;;;;21.20;55.80;;;;;;5042280;28;20031;-66
2023/10/12 07:07:07;;;;;;;;;;;21.20;55.80;;;;;;5042402;28;19924;-66
2023/10/12 07:09:42;;;;;;;;;;;21.30;55.90;;;;;;5042301;28;19925;-67
2023/10/12 07:12:09;;;;;;;;;;;21.30;55.80;;;;;;5052784;28;19925;-68
2023/10/12 07:14:39;;;;;;;;;;;21.30;55.80;;;;;;5044890;28;19979;-68
2023/10/12 07:17:07;;;;;;;;;;;21.30;55.90;;;;;;5060192;28;19925;-68
2023/10/12 07:19:35;;;;;;;;;;;21.30;55.80;;;;;;5043656;28;19964;-68
2023/10/12 07:22:07;;;;;;;;;;;21.30;55.70;;;;;;5043954;28;19928;-67
2023/10/12 07:24:34;;;;;;;;;;;21.30;55.60;;;;;;5049740;28;19960;-67
2023/10/12 07:27:09;;;;;;;;;;;21.30;55.60;;;;;;5050596;28;19925;-65
2023/10/12 07:29:39;;;;;;;;;;;21.30;55.50;;;;;;5052152;28;19970;-65
2023/10/12 07:32:18;;;;;;;;;;;21.30;55.50;;;;;;5047297;28;19921;-65
2023/10/12 07:34:52;;;;;;;;;;;21.30;55.50;;;;;;5048480;28;19925;-65
2023/10/12 07:37:18;;;;;;;;;;;21.30;55.50;;;;;;5049327;28;19947;-65
2023/10/12 07:39:45;;;;;;;;;;;21.30;55.40;;;;;;5045067;28;20314;-65
2023/10/12 07:42:14;;;;;;;;;;;21.30;55.40;;;;;;5050403;28;20455;-65
2023/10/12 07:44:43;;;;;;;;;;;21.30;55.40;;;;;;5046304;28;20014;-65
2023/10/12 07:47:18;;;;;;;;;;;21.30;55.40;;;;;;5052038;28;20023;-65
2023/10/12 07:49:49;;;;;;;;;;;21.30;55.40;;;;;;5045679;28;19962;-65
2023/10/12 07:52:31;;;;;;;;;;;21.30;55.40;;;;;;5047575;28;20023;-65
2023/10/12 07:54:58;;;;;;;;;;;21.30;55.40;;;;;;5044793;28;19928;-65
2023/10/12 07:57:29;;;;;;;;;;;21.30;55.40;;;;;;5051974;28;20082;-65
2023/10/12 08:00:29;;;;;;;;;;;21.40;55.40;;;;;;5045730;28;20343;-67
2023/10/12 08:05:50;;;;;;;;;;;21.40;55.40;;;;;;5048419;28;19925;-68
2023/10/12 08:11:08;;;;;;;;;;;21.40;55.50;;;;;;5052167;28;19921;-67
2023/10/12 08:13:39;;;;;;;;;;;21.40;55.50;;;;;;5050302;28;19928;-66
2023/10/12 08:16:14;;;;;;;;;;;21.40;55.50;;;;;;5049784;28;19931;-67
2023/10/12 08:21:31;;;;;;;;;;;21.40;55.40;;;;;;5050574;28;19928;-65
2023/10/12 08:23:57;;;;;;;;;;;21.40;55.30;;;;;;5049035;28;19925;-64
2023/10/12 08:26:35;;;;;;;;;;;21.40;55.40;;;;;;5049892;28;19920;-65
2023/10/12 08:29:09;;;;;;;;;;;21.40;55.40;;;;;;5050598;28;19952;-64
2023/10/12 08:31:43;;;;;;;;;;;21.40;55.30;;;;;;5033693;28;19924;-65
2023/10/12 08:34:41;;;;;;;;;;;21.40;55.20;;;;;;5043523;28;19925;-65
2023/10/12 08:37:17;;;;;;;;;;;21.40;55.20;;;;;;5050192;28;20031;-66
2023/10/12 08:39:50;;;;;;;;;;;21.40;55.20;;;;;;5046100;28;19928;-66
2023/10/12 08:42:36;;;;;;;;;;;21.40;55.10;;;;;;5050006;28;19921;-64
2023/10/12 08:45:08;;;;;;;;;;;21.40;55.20;;;;;;5050238;28;20012;-65
2023/10/12 08:47:44;;;;;;;;;;;21.40;55.20;;;;;;5044463;28;19975;-66
2023/10/12 08:50:47;;;;;;;;;;;21.40;55.20;;;;;;5047830;28;19929;-66
2023/10/12 08:52:58;;;;;;;;;;;21.40;55.30;;;;;;5045895;28;20015;-67
2023/10/12 08:55:25;;;;;;;;;;;21.40;55.20;;;;;;5050771;28;20289;-67
2023/10/12 08:57:55;;;;;;;;;;;21.40;55.20;;;;;;5041210;28;20119;-67
2023/10/12 09:00:38;;;;;;;;;;;21.40;55.20;;;;;;5046660;28;19921;-64
2023/10/12 09:03:13;;;;;;;;;;;21.40;55.20;;;;;;5045481;28;20311;-64
2023/10/12 09:05:40;;;;;;;;;;;21.40;55.20;;;;;;5041593;28;19921;-64
2023/10/12 09:08:08;;;;;;;;;;;21.40;55.20;;;;;;5045064;28;19992;-65
2023/10/12 09:10:51;;;;;;;;;;;21.50;55.30;;;;;;5049670;28;19925;-65
2023/10/12 09:13:18;;;;;;;;;;;21.50;55.30;;;;;;5046016;28;20445;-65
2023/10/12 09:15:46;;;;;;;;;;;21.40;55.20;;;;;;5046140;28;19920;-66
2023/10/12 09:18:16;;;;;;;;;;;21.40;55.20;;;;;;5045046;28;19924;-67
2023/10/12 09:20:58;;;;;;;;;;;21.50;55.30;;;;;;5047354;28;19956;-67
2023/10/12 09:23:28;;;;;;;;;;;21.50;55.30;;;;;;5045939;28;20004;-66
2023/10/12 09:26:16;;;;;;;;;;;21.50;55.30;;;;;;5047417;28;19921;-67
2023/10/12 09:28:53;;;;;;;;;;;21.50;55.20;;;;;;5042176;28;20024;-66
2023/10/12 09:31:48;;;;;;;;;;;21.50;55.10;;;;;;5044833;28;19925;-63
2023/10/12 09:36:54;;;;;;;;;;;21.50;55.00;;;;;;5044445;28;19921;-65
2023/10/12 09:39:25;;;;;;;;;;;21.50;55.00;;;;;;5047078;28;20011;-65
2023/10/12 09:41:55;;;;;;;;;;;21.50;55.00;;;;;;5048102;28;19933;-65
2023/10/12 09:44:26;;;;;;;;;;;21.50;54.90;;;;;;5045410;28;19925;-64
2023/10/12 09:46:55;;;;;;;;;;;21.50;54.90;;;;;;5045214;28;20020;-65
2023/10/12 09:49:25;;;;;;;;;;;21.50;54.90;;;;;;5048808;28;19933;-65
2023/10/12 09:51:54;;;;;;;;;;;21.50;54.90;;;;;;5048311;28;19939;-67
2023/10/12 09:54:27;;;;;;;;;;;21.50;54.90;;;;;;5040914;28;19920;-65
2023/10/12 09:56:57;;;;;;;;;;;21.50;54.90;;;;;;5049808;28;20278;-65
2023/10/12 09:59:24;;;;;;;;;;;21.50;54.90;;;;;;5028910;28;19983;-65
2023/10/12 10:02:01;;;;;;;;;;;21.50;54.80;;;;;;5048705;28;19978;-67
2023/10/12 10:04:34;;;;;;;;;;;21.50;54.90;;;;;;5044686;28;19920;-67
2023/10/12 10:07:14;;;;;;;;;;;21.50;55.00;;;;;;5040106;28;19940;-68
2023/10/12 10:09:45;;;;;;;;;;;21.50;55.00;;;;;;5046789;28;19920;-66
2023/10/12 10:12:15;;;;;;;;;;;21.50;55.00;;;;;;5048979;28;20019;-67
2023/10/12 10:14:44;;;;;;;;;;;21.50;55.00;;;;;;5048409;28;19955;-67
2023/10/12 10:17:14;;;;;;;;;;;21.50;55.10;;;;;;5046273;28;19921;-67
2023/10/12 10:19:51;;;;;;;;;;;21.50;55.10;;;;;;5046861;28;20008;-67
2023/10/12 10:22:21;;;;;;;;;;;21.60;55.20;;;;;;5041463;28;19931;-67
2023/10/12 10:24:51;;;;;;;;;;;21.60;55.10;;;;;;5045646;28;19921;-68
2023/10/12 10:27:18;;;;;;;;;;;21.60;55.20;;;;;;5049211;28;20278;-66
2023/10/12 10:29:52;;;;;;;;;;;21.60;55.10;;;;;;5043876;28;19925;-66
2023/10/12 10:32:23;;;;;;;;;;;21.60;55.10;;;;;;5050655;28;19928;-66
2023/10/12 10:34:56;;;;;;;;;;;21.60;54.70;;;;;;5049299;28;19948;-66
2023/10/12 10:37:47;;;;;;;;;;;21.60;54.80;;;;;;5043634;28;19931;-66
2023/10/12 10:40:17;;;;;;;;;;;21.60;54.80;;;;;;5046073;28;19921;-66
2023/10/12 10:42:57;;;;;;;;;;;21.50;54.40;;;;;;5049455;28;19947;-66
2023/10/12 10:45:25;;;;;;;;;;;21.60;53.50;;;;;;5044727;28;19920;-66
2023/10/12 10:47:51;;;;;;;;;;;21.50;51.60;;;;;;5043230;28;19921;-66
2023/10/12 10:50:20;;;;;;;;;;;21.40;50.50;;;;;;5049380;28;19920;-67
2023/10/12 10:52:46;;;;;;;;;;;21.40;49.50;;;;;;5049231;28;19927;-64
2023/10/12 10:55:24;;;;;;;;;;;21.30;49.30;;;;;;5049198;28;19928;-65
2023/10/12 10:57:56;;;;;;;;;;;21.30;49.10;;;;;;5048361;28;19928;-65
2023/10/12 11:00:33;;;;;;;;;;;21.20;48.80;;;;;;5035719;28;19925;-64
2023/10/12 11:03:03;;;;;;;;;;;21.10;48.70;;;;;;5042412;28;19924;-66
2023/10/12 11:05:31;;;;;;;;;;;21.10;48.80;;;;;;5049137;28;19963;-65
2023/10/12 11:08:18;;;;;;;;;;;21.10;49.00;;;;;;5044981;28;20008;-67
2023/10/12 11:13:25;;;;;;;;;;;20.90;48.30;;;;;;5047798;28;19925;-66
2023/10/12 11:15:52;;;;;;;;;;;20.90;48.10;;;;;;5044074;28;19921;-65
2023/10/12 11:18:19;;;;;;;;;;;20.90;48.20;;;;;;5043515;28;19929;-65
2023/10/12 11:20:49;;;;;;;;;;;20.90;48.30;;;;;;5043143;28;19982;-68
2023/10/12 11:23:17;;;;;;;;;;;20.90;48.00;;;;;;5049836;28;19952;-67
2023/10/12 11:25:44;;;;;;;;;;;20.80;48.10;;;;;;5047876;28;19924;-66
2023/10/12 11:28:20;;;;;;;;;;;20.80;48.10;;;;;;5047932;28;19921;-67
2023/10/12 11:30:48;;;;;;;;;;;20.80;48.00;;;;;;5048683;28;19921;-66
2023/10/12 11:33:16;;;;;;;;;;;20.80;48.00;;;;;;5048212;28;19931;-65
2023/10/12 11:35:43;;;;;;;;;;;20.70;48.20;;;;;;5048622;28;19920;-66
2023/10/12 11:38:17;;;;;;;;;;;20.70;48.70;;;;;;5048081;28;19932;-67
2023/10/12 11:40:44;;;;;;;;;;;20.70;48.90;;;;;;5050086;28;19924;-66
2023/10/12 11:43:11;;;;;;;;;;;20.70;49.10;;;;;;5044151;28;19927;-67
2023/10/12 11:45:52;;;;;;;;;;;20.80;49.40;;;;;;5046665;28;19924;-67
2023/10/12 11:48:21;;;;;;;;;;;20.80;49.60;;;;;;5046396;28;19978;-66
2023/10/12 11:50:48;;;;;;;;;;;20.80;49.80;;;;;;5048386;28;19928;-67
2023/10/12 11:53:17;;;;;;;;;;;20.80;49.90;;;;;;5042903;28;19921;-66
2023/10/12 11:55:44;;;;;;;;;;;20.90;50.10;;;;;;5042985;28;19931;-67
2023/10/12 11:58:18;;;;;;;;;;;20.90;50.30;;;;;;5045269;28;20036;-66
2023/10/12 12:00:50;;;;;;;;;;;20.90;50.30;;;;;;5047420;28;19921;-67
2023/10/12 12:03:17;;;;;;;;;;;20.90;50.40;;;;;;5046898;28;20267;-66
2023/10/12 12:05:50;;;;;;;;;;;21.00;50.70;;;;;;5033344;28;19964;-65
2023/10/12 12:08:19;;;;;;;;;;;21.00;50.80;;;;;;5054393;28;19921;-66
2023/10/12 12:10:46;;;;;;;;;;;21.00;50.90;;;;;;5046807;28;19943;-66
2023/10/12 12:13:13;;;;;;;;;;;21.10;51.10;;;;;;5047298;28;19939;-67
2023/10/12 12:15:43;;;;;;;;;;;21.10;51.20;;;;;;5037703;28;19952;-66
2023/10/12 12:18:14;;;;;;;;;;;21.10;51.20;;;;;;5054766;28;19928;-65
2023/10/12 12:20:44;;;;;;;;;;;21.10;51.20;;;;;;5050044;28;20023;-65
2023/10/12 12:23:11;;;;;;;;;;;21.10;51.30;;;;;;5051434;28;20164;-64
2023/10/12 12:25:40;;;;;;;;;;;21.10;51.30;;;;;;5048125;28;19974;-66
2023/10/12 12:28:08;;;;;;;;;;;21.20;51.50;;;;;;5048547;28;19927;-66
2023/10/12 12:30:35;;;;;;;;;;;21.20;51.50;;;;;;5047563;28;19929;-65
2023/10/12 12:33:03;;;;;;;;;;;21.20;51.60;;;;;;5051719;28;19924;-67
2023/10/12 12:35:30;;;;;;;;;;;21.20;51.60;;;;;;5047957;28;19920;-67
2023/10/12 12:38:00;;;;;;;;;;;21.20;51.60;;;;;;5046457;28;19928;-69
2023/10/12 12:40:30;;;;;;;;;;;21.20;51.60;;;;;;5053089;28;19947;-67
2023/10/12 12:43:00;;;;;;;;;;;21.20;51.70;;;;;;5050924;28;19920;-66
2023/10/12 12:45:27;;;;;;;;;;;21.30;51.80;;;;;;5047124;28;19956;-66
2023/10/12 12:47:57;;;;;;;;;;;21.30;51.80;;;;;;5047323;28;19921;-65
2023/10/12 12:50:23;;;;;;;;;;;21.30;51.80;;;;;;5041787;28;19979;-67
2023/10/12 12:52:50;;;;;;;;;;;21.30;51.90;;;;;;5051025;28;19928;-65
2023/10/12 12:55:18;;;;;;;;;;;21.30;51.90;;;;;;5052911;28;20440;-65
2023/10/12 12:57:45;;;;;;;;;;;21.30;51.90;;;;;;5050212;28;19940;-66
2023/10/12 13:00:19;;;;;;;;;;;21.30;51.90;;;;;;5051581;28;19921;-66
2023/10/12 13:02:47;;;;;;;;;;;21.30;51.90;;;;;;5049239;28;19920;-67
2023/10/12 13:05:14;;;;;;;;;;;21.30;51.90;;;;;;5049557;28;20032;-64
2023/10/12 13:07:41;;;;;;;;;;;21.40;52.00;;;;;;5047881;28;19924;-68
2023/10/12 13:10:11;;;;;;;;;;;21.40;52.00;;;;;;5042258;28;19925;-64
2023/10/12 13:12:40;;;;;;;;;;;21.40;52.00;;;;;;5047378;28;19974;-65
2023/10/12 13:15:09;;;;;;;;;;;21.40;52.00;;;;;;5049183;28;20016;-67
2023/10/12 13:17:38;;;;;;;;;;;21.40;51.90;;;;;;5049475;28;20286;-66
2023/10/12 13:20:05;;;;;;;;;;;21.40;52.00;;;;;;5042766;28;20274;-68
2023/10/12 13:22:32;;;;;;;;;;;21.40;52.60;;;;;;5045213;28;19921;-65
2023/10/12 13:24:59;;;;;;;;;;;21.40;52.10;;;;;;5049535;28;19920;-63
2023/10/12 13:27:29;;;;;;;;;;;21.40;52.10;;;;;;5052884;28;20321;-64
2023/10/12 13:29:59;;;;;;;;;;;21.40;52.10;;;;;;5041350;28;20017;-65
2023/10/12 13:32:26;;;;;;;;;;;21.40;52.10;;;;;;5044569;28;19954;-65
2023/10/12 13:34:58;;;;;;;;;;;21.40;52.00;;;;;;5048700;28;19921;-65
2023/10/12 13:37:30;;;;;;;;;;;21.50;52.10;;;;;;5049082;28;19967;-62
2023/10/12 13:39:57;;;;;;;;;;;21.50;52.10;;;;;;5045103;28;19920;-65
2023/10/12 13:42:24;;;;;;;;;;;21.50;52.10;;;;;;5049044;28;19921;-64
2023/10/12 13:44:52;;;;;;;;;;;21.50;52.20;;;;;;5048467;28;19940;-64
2023/10/12 13:47:18;;;;;;;;;;;21.50;52.10;;;;;;5044734;28;19956;-65
2023/10/12 13:49:45;;;;;;;;;;;21.50;52.00;;;;;;5043628;28;20551;-66
2023/10/12 13:52:13;;;;;;;;;;;21.50;52.00;;;;;;5042750;28;19931;-65
2023/10/12 13:54:45;;;;;;;;;;;21.50;52.00;;;;;;5040776;28;19921;-66
2023/10/12 13:57:14;;;;;;;;;;;21.60;52.10;;;;;;5046273;28;19920;-67
2023/10/12 13:59:45;;;;;;;;;;;21.60;52.10;;;;;;5048484;28;19920;-65
2023/10/12 14:02:12;;;;;;;;;;;21.50;52.00;;;;;;5050534;28;19932;-67
2023/10/12 14:04:40;;;;;;;;;;;21.50;52.00;;;;;;5047603;28;19928;-65
2023/10/12 14:07:07;;;;;;;;;;;21.60;52.00;;;;;;5042597;28;19928;-67
2023/10/12 14:09:35;;;;;;;;;;;21.60;52.10;;;;;;5046818;28;19920;-64
2023/10/12 14:12:02;;;;;;;;;;;21.60;52.10;;;;;;5048393;28;19975;-66
2023/10/12 14:14:29;;;;;;;;;;;21.60;52.20;;;;;;5042265;28;19929;-66
2023/10/12 14:16:56;;;;;;;;;;;21.60;52.20;;;;;;5036707;28;19924;-66
2023/10/12 14:19:24;;;;;;;;;;;21.60;52.10;;;;;;5049933;28;19921;-64
2023/10/12 14:21:52;;;;;;;;;;;21.60;52.20;;;;;;5047625;28;19975;-66
2023/10/12 14:24:22;;;;;;;;;;;21.60;52.20;;;;;;5048111;28;19929;-66
2023/10/12 14:26:51;;;;;;;;;;;21.60;52.20;;;;;;5047716;28;19971;-64
2023/10/12 14:29:19;;;;;;;;;;;21.60;52.20;;;;;;5052531;28;19921;-65
2023/10/12 14:31:46;;;;;;;;;;;21.60;52.10;;;;;;5049062;28;20019;-65
2023/10/12 14:34:13;;;;;;;;;;;21.70;52.30;;;;;;5047253;28;19920;-64
2023/10/12 14:36:40;;;;;;;;;;;21.70;52.30;;;;;;5039565;28;19943;-66
2023/10/12 14:39:12;;;;;;;;;;;21.70;52.30;;;;;;5048021;28;19920;-63
2023/10/12 14:41:39;;;;;;;;;;;21.70;52.30;;;;;;5051110;28;20286;-65
2023/10/12 14:44:07;;;;;;;;;;;21.60;52.20;;;;;;5042654;28;20014;-64
2023/10/12 14:46:34;;;;;;;;;;;21.70;52.30;;;;;;5039935;28;19924;-64
2023/10/12 14:49:03;;;;;;;;;;;21.70;52.20;;;;;;5037476;28;19921;-62
2023/10/12 14:51:31;;;;;;;;;;;21.70;52.20;;;;;;5048520;28;20363;-64
2023/10/12 14:53:57;;;;;;;;;;;21.70;52.10;;;;;;5048988;28;19928;-64
2023/10/12 14:56:27;;;;;;;;;;;21.70;52.10;;;;;;5048233;28;19967;-67
2023/10/12 14:58:53;;;;;;;;;;;21.70;52.10;;;;;;5038760;28;19928;-65
2023/10/12 15:01:27;;;;;;;;;;;21.70;52.00;;;;;;5043512;28;19978;-66
2023/10/12 15:03:54;;;;;;;;;;;21.70;52.00;;;;;;5051654;28;19932;-67
2023/10/12 15:06:21;;;;;;;;;;;21.70;52.00;;;;;;5042816;28;19931;-68